Time;durP1;ratioP1;P1;durP2;ratioP2;P2;SDS_P1;SDS_P2;PMS_P1;PMS_P2;Temp;Humidity;BMP_temperature;BMP_pressure;BME280_temperature;BME280_humidity;BME280_pressure;Samples;Min_cycle;Max_cycle;Signal;HPM_P1;HPM_P2
2022/06/11 00:01:25;;;;;;;24.95;5.20;;;14.50;99.90;;;;;;5031184;28;20038;-78
2022/06/11 00:03:53;;;;;;;29.05;5.18;;;14.60;99.90;;;;;;5036105;28;20025;-80
2022/06/11 00:06:20;;;;;;;26.13;5.18;;;14.60;99.90;;;;;;5044903;28;20083;-73
2022/06/11 00:08:47;;;;;;;26.25;5.18;;;14.60;99.90;;;;;;5031213;28;20703;-74
2022/06/11 00:11:13;;;;;;;26.38;4.43;;;14.60;99.90;;;;;;5039509;28;20122;-77
2022/06/11 00:13:40;;;;;;;27.85;4.45;;;14.60;99.90;;;;;;5021730;28;20021;-79
2022/06/11 00:16:06;;;;;;;24.98;5.03;;;14.60;99.90;;;;;;5037226;28;20476;-76
2022/06/11 00:18:33;;;;;;;30.20;4.95;;;14.60;99.90;;;;;;5058834;28;22164;-78
2022/06/11 00:20:59;;;;;;;26.63;5.07;;;14.60;99.90;;;;;;5062496;28;20020;-78
2022/06/11 00:23:26;;;;;;;24.20;5.40;;;14.60;99.90;;;;;;5073267;28;20041;-77
2022/06/11 00:25:52;;;;;;;24.98;4.93;;;14.60;99.90;;;;;;5073372;28;20028;-76
2022/06/11 00:28:19;;;;;;;26.40;5.32;;;14.60;99.90;;;;;;5042190;28;20505;-76
2022/06/11 00:30:45;;;;;;;29.40;5.60;;;14.50;99.90;;;;;;5068223;28;20359;-74
2022/06/11 00:33:11;;;;;;;28.73;4.82;;;14.50;99.90;;;;;;5050429;28;20126;-77
2022/06/11 00:35:39;;;;;;;26.85;4.57;;;14.50;99.90;;;;;;5060882;28;20185;-74
2022/06/11 00:38:05;;;;;;;31.77;5.50;;;14.40;99.90;;;;;;5045410;28;20597;-75
2022/06/11 00:40:34;;;;;;;29.02;5.40;;;14.40;99.90;;;;;;5068777;28;20140;-73
2022/06/11 00:43:00;;;;;;;31.75;5.47;;;14.30;99.90;;;;;;5070136;28;20479;-74
2022/06/11 00:45:46;;;;;;;22.60;5.13;;;14.40;99.90;;;;;;5067736;28;20036;-80
2022/06/11 00:48:22;;;;;;;26.77;5.15;;;14.40;99.90;;;;;;5061855;28;20163;-73
2022/06/11 00:50:56;;;;;;;24.55;5.30;;;14.30;99.90;;;;;;5042835;28;20024;-75
2022/06/11 00:53:34;;;;;;;31.90;5.70;;;14.30;99.90;;;;;;5074135;28;20071;-75
2022/06/11 00:56:03;;;;;;;24.48;5.45;;;14.30;99.90;;;;;;5055332;28;20033;-79
2022/06/11 00:58:36;;;;;;;24.50;4.33;;;14.30;99.90;;;;;;5060100;28;20056;-76
2022/06/11 01:01:01;;;;;;;22.73;4.55;;;14.20;99.90;;;;;;5063281;28;20020;-77
2022/06/11 01:03:32;;;;;;;27.13;5.18;;;14.20;99.90;;;;;;5059073;28;20039;-74
2022/06/11 01:06:17;;;;;;;30.15;5.38;;;14.20;99.90;;;;;;5061154;28;20176;-73
2022/06/11 01:09:02;;;;;;;31.65;5.10;;;14.10;99.90;;;;;;5069892;28;20043;-75
2022/06/11 01:11:39;;;;;;;28.42;4.53;;;14.10;99.90;;;;;;5054975;28;20411;-74
2022/06/11 01:14:29;;;;;;;25.42;4.82;;;14.10;99.90;;;;;;5060304;28;20036;-75
2022/06/11 01:17:19;;;;;;;22.10;5.13;;;14.10;99.90;;;;;;5047283;28;20523;-73
2022/06/11 01:19:56;;;;;;;24.10;5.35;;;14.10;99.90;;;;;;5068843;28;20019;-73
2022/06/11 01:22:39;;;;;;;30.48;5.78;;;14.10;99.90;;;;;;5038165;28;20033;-75
2022/06/11 01:25:27;;;;;;;22.45;4.43;;;14.10;99.90;;;;;;5068567;28;20032;-75
2022/06/11 01:27:59;;;;;;;30.70;5.50;;;14.00;99.90;;;;;;5071201;28;20111;-75
2022/06/11 01:30:37;;;;;;;29.13;5.50;;;14.00;99.90;;;;;;5063191;28;20032;-77
2022/06/11 01:33:03;;;;;;;28.85;5.15;;;13.90;99.90;;;;;;5057881;28;20032;-75
2022/06/11 01:36:03;;;;;;;26.88;5.32;;;13.90;99.90;;;;;;5065358;28;20233;-74
2022/06/11 01:38:40;;;;;;;;;;;13.80;99.90;;;;;;5062565;28;20055;-78
2022/06/11 01:41:30;;;;;;;26.52;5.78;;;13.80;99.90;;;;;;5069246;28;19908;-77
2022/06/11 01:44:09;;;;;;;27.58;5.40;;;13.80;99.90;;;;;;5075141;28;20485;-76
2022/06/11 01:46:39;;;;;;;27.27;5.20;;;13.70;99.90;;;;;;5042425;28;20032;-74
2022/06/11 01:49:27;;;;;;;29.98;5.53;;;13.70;99.90;;;;;;5061413;28;20020;-74
2022/06/11 01:52:05;;;;;;;28.90;6.25;;;13.70;99.90;;;;;;5064975;28;20032;-75
2022/06/11 01:54:42;;;;;;;24.42;4.40;;;13.70;99.90;;;;;;5063355;28;20073;-80
2022/06/11 01:57:45;;;;;;;27.30;5.63;;;13.70;99.90;;;;;;5056577;28;20462;-83
2022/06/11 02:00:24;;;;;;;24.45;4.82;;;13.70;99.90;;;;;;5064347;28;20024;-78
2022/06/11 02:03:03;;;;;;;24.15;5.68;;;13.70;99.90;;;;;;5059277;28;20044;-80
2022/06/11 02:05:50;;;;;;;24.50;4.80;;;13.70;99.90;;;;;;5050107;28;20029;-75
2022/06/11 02:08:46;;;;;;;26.15;4.47;;;13.70;99.90;;;;;;5059860;28;20382;-74
2022/06/11 02:11:23;;;;;;;21.90;5.20;;;13.60;99.90;;;;;;5066398;28;20044;-76
2022/06/11 02:14:12;;;;;;;21.90;4.32;;;13.60;99.90;;;;;;5063434;28;20024;-75
2022/06/11 02:16:50;;;;;;;20.70;4.10;;;13.60;99.90;;;;;;5047841;28;20123;-75
2022/06/11 02:19:23;;;;;;;22.30;4.82;;;13.60;99.90;;;;;;5065187;28;20127;-76
2022/06/11 02:21:57;;;;;;;23.65;4.32;;;13.60;99.90;;;;;;5059052;28;20356;-80
2022/06/11 02:24:39;;;;;;;20.58;5.13;;;13.50;99.90;;;;;;5051690;28;20290;-75
2022/06/11 02:27:11;;;;;;;28.65;5.30;;;13.50;99.90;;;;;;5051392;28;20036;-83
2022/06/11 02:29:39;;;;;;;23.35;4.70;;;13.50;99.90;;;;;;5042912;28;20577;-79
2022/06/11 02:32:16;;;;;;;25.70;4.80;;;13.40;99.90;;;;;;5046132;28;20098;-75
2022/06/11 02:34:55;;;;;;;24.13;4.90;;;13.50;99.90;;;;;;5033125;28;20024;-80
2022/06/11 02:37:26;;;;;;;28.92;5.63;;;13.50;99.90;;;;;;5052414;28;20025;-74
2022/06/11 02:39:54;;;;;;;26.63;5.28;;;13.40;99.90;;;;;;5063481;28;20100;-75
2022/06/11 02:42:23;;;;;;;26.55;6.28;;;13.40;99.90;;;;;;5057047;28;20033;-78
2022/06/11 02:44:49;;;;;;;28.93;5.50;;;13.40;99.90;;;;;;5045993;28;20056;-73
2022/06/11 02:47:16;;;;;;;28.02;5.03;;;13.40;99.90;;;;;;5052485;28;20278;-86
2022/06/11 02:49:42;;;;;;;25.05;4.82;;;13.40;99.90;;;;;;5048941;28;20037;-76
2022/06/11 02:52:14;;;;;;;27.05;4.45;;;13.40;99.90;;;;;;5055527;28;20421;-76
2022/06/11 02:54:41;;;;;;;21.77;4.90;;;13.50;99.90;;;;;;5045046;28;20029;-73
2022/06/11 02:57:09;;;;;;;23.50;5.07;;;13.60;99.90;;;;;;5053726;28;20036;-77
2022/06/11 02:59:35;;;;;;;24.17;4.22;;;13.60;99.90;;;;;;5046272;28;20036;-74
2022/06/11 03:02:00;;;;;;;32.45;5.53;;;13.60;99.90;;;;;;5049117;28;20021;-75
2022/06/11 03:04:28;;;;;;;21.67;4.78;;;13.70;99.90;;;;;;5057732;28;20033;-80
2022/06/11 03:06:54;;;;;;;30.38;5.22;;;13.70;99.90;;;;;;5054773;28;20033;-78
2022/06/11 03:09:25;;;;;;;35.95;6.20;;;13.70;99.90;;;;;;5059401;28;20063;-76
2022/06/11 03:11:52;;;;;;;25.70;4.57;;;13.80;99.90;;;;;;5042173;28;20024;-76
2022/06/11 03:14:18;;;;;;;24.10;5.15;;;13.80;99.90;;;;;;5058840;28;20021;-77
2022/06/11 03:16:45;;;;;;;22.15;4.50;;;13.70;99.90;;;;;;5036515;28;20044;-76
2022/06/11 03:19:12;;;;;;;26.27;5.05;;;13.80;99.90;;;;;;5041570;28;20025;-79
2022/06/11 03:21:38;;;;;;;29.10;5.28;;;13.70;99.90;;;;;;5041546;28;20028;-73
2022/06/11 03:24:04;;;;;;;26.90;4.38;;;13.70;99.90;;;;;;5029993;28;20033;-76
2022/06/11 03:26:30;;;;;;;21.40;4.53;;;13.70;99.90;;;;;;5024516;28;20087;-74
2022/06/11 03:28:56;;;;;;;23.90;5.15;;;13.70;99.90;;;;;;5031306;28;20061;-76
2022/06/11 03:31:22;;;;;;;20.05;4.60;;;13.70;99.90;;;;;;5029850;28;20096;-76
2022/06/11 03:33:47;;;;;;;27.13;4.85;;;13.70;99.90;;;;;;5043697;28;20018;-74
2022/06/11 03:36:15;;;;;;;19.85;4.40;;;13.70;99.90;;;;;;5051090;28;20040;-73
2022/06/11 03:38:42;;;;;;;27.67;4.35;;;13.70;99.90;;;;;;5048643;28;20087;-74
2022/06/11 03:41:09;;;;;;;23.10;5.10;;;13.70;99.90;;;;;;5056351;28;20486;-85
2022/06/11 03:43:36;;;;;;;25.10;5.05;;;13.60;99.90;;;;;;5052552;28;20028;-81
2022/06/11 03:46:03;;;;;;;27.67;4.88;;;13.60;99.90;;;;;;5050456;28;20036;-77
2022/06/11 03:48:30;;;;;;;25.83;4.57;;;13.60;99.90;;;;;;5027647;28;20116;-76
2022/06/11 03:50:57;;;;;;;25.15;4.72;;;13.50;99.90;;;;;;5050976;28;20128;-78
2022/06/11 03:53:25;;;;;;;26.65;4.65;;;13.50;99.90;;;;;;5032661;28;20116;-76
2022/06/11 03:55:50;;;;;;;25.10;4.80;;;13.50;99.90;;;;;;5028181;28;20490;-79
2022/06/11 03:58:18;;;;;;;24.60;4.55;;;13.40;99.90;;;;;;5041926;28;20028;-75
2022/06/11 04:03:30;;;;;;;25.30;4.75;;;13.50;99.90;;;;;;5045929;28;20086;-74
2022/06/11 04:05:56;;;;;;;26.08;4.97;;;13.50;99.90;;;;;;5049608;28;20115;-76
2022/06/11 04:08:23;;;;;;;24.17;4.40;;;13.50;99.90;;;;;;5053496;28;20721;-75
2022/06/11 04:10:49;;;;;;;24.38;4.70;;;13.50;99.90;;;;;;5046764;28;20105;-73
2022/06/11 04:13:15;;;;;;;27.35;4.95;;;13.50;99.90;;;;;;5029698;28;20552;-82
2022/06/11 04:15:43;;;;;;;24.35;4.75;;;13.50;99.90;;;;;;5032990;28;20041;-77
2022/06/11 04:18:23;;;;;;;26.48;5.20;;;13.50;99.90;;;;;;5064276;28;20171;-77
2022/06/11 04:20:49;;;;;;;20.50;4.47;;;13.50;99.90;;;;;;5065519;28;20071;-75
2022/06/11 04:23:15;;;;;;;29.85;5.40;;;13.50;99.90;;;;;;5056608;28;20039;-81
2022/06/11 04:25:42;;;;;;;26.75;4.75;;;13.50;99.90;;;;;;5063600;28;20050;-75
2022/06/11 04:28:08;;;;;;;27.35;4.57;;;13.50;99.90;;;;;;5059336;28;20490;-76
2022/06/11 04:30:33;;;;;;;26.60;5.05;;;13.50;99.90;;;;;;5057959;28;20059;-77
2022/06/11 04:32:59;;;;;;;22.08;4.13;;;13.50;99.90;;;;;;5064949;28;20478;-73
2022/06/11 04:35:25;;;;;;;25.48;4.57;;;13.60;99.90;;;;;;5056692;28;20033;-73
2022/06/11 04:37:50;;;;;;;21.90;4.80;;;13.60;99.90;;;;;;5059631;28;20032;-78
2022/06/11 04:40:18;;;;;;;23.80;4.20;;;13.60;99.90;;;;;;5061675;28;20136;-73
2022/06/11 04:42:44;;;;;;;25.63;5.05;;;13.60;99.90;;;;;;5041373;28;20112;-73
2022/06/11 04:45:12;;;;;;;24.17;4.47;;;13.60;99.90;;;;;;5066804;28;20033;-74
2022/06/11 04:47:39;;;;;;;22.45;4.72;;;13.60;99.90;;;;;;5043285;28;20029;-73
2022/06/11 04:50:06;;;;;;;23.58;4.25;;;13.60;99.90;;;;;;5058117;28;20033;-79
2022/06/11 04:52:32;;;;;;;27.27;4.97;;;13.50;99.90;;;;;;5058799;28;20058;-75
2022/06/11 04:54:58;;;;;;;27.33;5.22;;;13.50;99.90;;;;;;5059203;28;20032;-74
2022/06/11 04:57:24;;;;;;;23.50;5.43;;;13.60;99.90;;;;;;5042849;28;20039;-79
2022/06/11 04:59:51;;;;;;;25.10;5.35;;;13.50;99.90;;;;;;5063164;28;20036;-75
2022/06/11 05:02:17;;;;;;;25.65;5.07;;;13.60;99.90;;;;;;5051797;28;20035;-79
2022/06/11 05:04:43;;;;;;;27.65;5.07;;;13.60;99.90;;;;;;5057783;28;20043;-77
2022/06/11 05:07:08;;;;;;;23.02;4.00;;;13.70;99.90;;;;;;5061149;28;20378;-75
2022/06/11 05:09:35;;;;;;;32.40;5.45;;;13.70;99.90;;;;;;5062228;28;20659;-80
2022/06/11 05:12:01;;;;;;;24.50;4.85;;;13.70;99.90;;;;;;5058593;28;20032;-75
2022/06/11 05:14:27;;;;;;;24.98;5.00;;;13.80;99.90;;;;;;5048280;28;20077;-75
2022/06/11 05:16:56;;;;;;;20.25;4.15;;;13.80;99.90;;;;;;5038398;28;20189;-77
2022/06/11 05:19:22;;;;;;;28.58;4.70;;;13.90;99.90;;;;;;5046704;28;20032;-76
2022/06/11 05:21:49;;;;;;;20.92;4.35;;;14.00;99.90;;;;;;5030619;28;20098;-79
2022/06/11 05:24:15;;;;;;;25.95;5.65;;;14.00;99.90;;;;;;5017023;28;20025;-76
2022/06/11 05:26:51;;;;;;;30.27;6.38;;;14.10;99.90;;;;;;5047538;28;20422;-76
2022/06/11 05:29:29;;;;;;;28.35;5.68;;;14.10;99.90;;;;;;5054912;28;20047;-81
2022/06/11 05:31:56;;;;;;;33.75;5.75;;;14.20;99.90;;;;;;5050766;28;20024;-75
2022/06/11 05:34:22;;;;;;;27.88;5.82;;;14.30;99.90;;;;;;5049764;28;20026;-79
2022/06/11 05:36:48;;;;;;;22.50;5.22;;;14.30;99.90;;;;;;5045135;28;20364;-76
2022/06/11 05:39:14;;;;;;;29.10;5.07;;;14.30;99.90;;;;;;5025767;28;20028;-76
2022/06/11 05:41:41;;;;;;;24.40;4.32;;;14.40;99.90;;;;;;5022924;28;20017;-81
2022/06/11 05:44:06;;;;;;;27.35;5.30;;;14.40;99.90;;;;;;5048164;28;20086;-74
2022/06/11 05:46:33;;;;;;;26.08;4.85;;;14.50;99.90;;;;;;5042427;28;20024;-76
2022/06/11 05:49:06;;;;;;;24.08;4.78;;;14.50;99.90;;;;;;5028070;28;20025;-76
2022/06/11 05:51:36;;;;;;;24.90;4.68;;;14.60;99.90;;;;;;5036992;28;20025;-74
2022/06/11 05:54:15;;;;;;;29.45;4.45;;;14.60;99.90;;;;;;5021365;28;20025;-80
2022/06/11 05:56:41;;;;;;;21.67;5.27;;;14.60;99.90;;;;;;5045475;28;20580;-78
2022/06/11 05:59:16;;;;;;;34.70;5.15;;;14.70;99.90;;;;;;5060755;28;20136;-77
2022/06/11 06:01:43;;;;;;;27.33;5.03;;;14.80;99.90;;;;;;5035468;28;20137;-74
2022/06/11 06:04:09;;;;;;;28.75;5.10;;;14.90;99.90;;;;;;5045008;28;20475;-75
2022/06/11 06:06:35;;;;;;;20.95;4.68;;;15.00;99.90;;;;;;5026455;28;20064;-77
2022/06/11 06:09:02;;;;;;;26.20;4.22;;;15.00;99.90;;;;;;5024308;28;20028;-77
2022/06/11 06:11:28;;;;;;;21.67;4.40;;;15.10;99.90;;;;;;5024157;28;20036;-75
2022/06/11 06:13:56;;;;;;;22.63;4.15;;;15.10;99.90;;;;;;5040539;28;20037;-78
2022/06/11 06:16:24;;;;;;;26.67;4.35;;;15.10;99.90;;;;;;5036986;28;20123;-75
2022/06/11 06:18:52;;;;;;;20.92;4.03;;;15.20;99.90;;;;;;5043296;28;20345;-81
2022/06/11 06:21:20;;;;;;;27.02;4.82;;;15.30;99.90;;;;;;5058304;28;20378;-77
2022/06/11 06:23:46;;;;;;;23.00;4.28;;;15.40;99.90;;;;;;5062002;28;20132;-74
2022/06/11 06:26:12;;;;;;;24.38;3.95;;;15.40;99.90;;;;;;5060261;28;20041;-77
2022/06/11 06:28:37;;;;;;;23.17;3.90;;;15.40;99.90;;;;;;5053499;28;20048;-77
2022/06/11 06:31:05;;;;;;;23.60;3.90;;;15.50;99.90;;;;;;5056377;28;20655;-76
2022/06/11 06:33:31;;;;;;;23.30;4.25;;;15.60;99.90;;;;;;5042830;28;20036;-73
2022/06/11 06:35:58;;;;;;;21.90;3.85;;;15.60;99.90;;;;;;5040620;28;20081;-76
2022/06/11 06:38:24;;;;;;;18.20;3.70;;;15.70;99.90;;;;;;5051508;28;20037;-80
2022/06/11 06:40:49;;;;;;;21.85;3.50;;;15.70;99.90;;;;;;5053201;28;20035;-74
2022/06/11 06:43:16;;;;;;;23.88;4.25;;;15.70;99.90;;;;;;5059209;28;20558;-75
2022/06/11 06:45:41;;;;;;;19.95;4.05;;;15.80;99.90;;;;;;5062306;28;20037;-75
2022/06/11 06:48:07;;;;;;;18.85;3.60;;;15.70;99.90;;;;;;5062242;28;20098;-78
2022/06/11 06:50:33;;;;;;;21.77;4.22;;;15.70;99.90;;;;;;5063021;28;20734;-76
2022/06/11 06:52:59;;;;;;;26.50;3.65;;;15.60;99.90;;;;;;5061588;28;20025;-80
2022/06/11 06:55:25;;;;;;;23.95;4.25;;;15.60;99.90;;;;;;5061934;28;20588;-76
2022/06/11 06:57:51;;;;;;;17.65;3.85;;;15.60;99.90;;;;;;5058591;28;20051;-75
2022/06/11 07:00:18;;;;;;;16.15;3.10;;;15.60;99.90;;;;;;5060949;28;20086;-74
2022/06/11 07:02:45;;;;;;;20.63;4.03;;;15.60;99.90;;;;;;5061201;28;20518;-74
2022/06/11 07:05:13;;;;;;;17.95;3.15;;;15.80;99.90;;;;;;5060192;28;20025;-74
2022/06/11 07:07:39;;;;;;;19.50;3.10;;;15.90;99.90;;;;;;5058781;28;20054;-81
2022/06/11 07:10:07;;;;;;;16.60;3.28;;;15.90;99.90;;;;;;5057756;28;20515;-83
2022/06/11 07:12:32;;;;;;;20.10;3.38;;;16.00;99.90;;;;;;5039260;28;20524;-79
2022/06/11 07:14:58;;;;;;;17.75;3.30;;;16.10;99.90;;;;;;5059679;28;20040;-76
2022/06/11 07:17:25;;;;;;;18.00;3.60;;;16.10;99.90;;;;;;5043417;28;20304;-74
2022/06/11 07:19:57;;;;;;;18.33;3.95;;;16.10;99.90;;;;;;5060789;28;20028;-80
2022/06/11 07:22:36;;;;;;;24.90;3.65;;;16.10;99.90;;;;;;5060170;28;20032;-76
2022/06/11 07:25:05;;;;;;;13.90;3.25;;;16.10;99.90;;;;;;5061754;28;20025;-76
2022/06/11 07:27:36;;;;;;;19.90;3.45;;;16.00;99.90;;;;;;5044845;28;20029;-74
2022/06/11 07:30:12;;;;;;;17.75;3.20;;;16.10;99.90;;;;;;5042387;28;20032;-78
2022/06/11 07:32:40;;;;;;;14.88;2.67;;;16.10;99.90;;;;;;5059557;28;20069;-75
2022/06/11 07:35:13;;;;;;;18.25;3.05;;;16.20;99.90;;;;;;5057936;28;20025;-80
2022/06/11 07:37:40;;;;;;;18.85;2.92;;;16.40;99.90;;;;;;5054302;28;20208;-74
2022/06/11 07:40:07;;;;;;;15.13;2.60;;;16.60;99.90;;;;;;5060943;28;20020;-76
2022/06/11 07:42:33;;;;;;;18.27;3.03;;;16.80;99.90;;;;;;5042182;28;20029;-77
2022/06/11 07:44:59;;;;;;;16.13;3.08;;;16.90;99.90;;;;;;5060591;28;20035;-73
2022/06/11 07:50:11;;;;;;;16.42;2.88;;;17.10;99.90;;;;;;5056223;28;20040;-75
2022/06/11 07:52:38;;;;;;;18.35;2.50;;;17.20;99.00;;;;;;5041885;28;20029;-73
2022/06/11 07:55:04;;;;;;;17.88;3.08;;;17.20;98.60;;;;;;5044542;28;20059;-73
2022/06/11 07:57:30;;;;;;;20.02;3.08;;;17.10;98.30;;;;;;5042456;28;20032;-72
2022/06/11 07:59:56;;;;;;;19.23;3.00;;;17.00;99.30;;;;;;5058784;28;20024;-77
2022/06/11 08:02:21;;;;;;;18.15;3.13;;;17.10;98.60;;;;;;5059973;28;20536;-79
2022/06/11 08:04:47;;;;;;;16.45;3.63;;;17.20;99.70;;;;;;5064138;28;20066;-74
2022/06/11 08:07:13;;;;;;;19.98;3.75;;;17.30;99.60;;;;;;5061971;28;20064;-73
2022/06/11 08:09:38;;;;;;;19.33;3.22;;;17.40;99.50;;;;;;5059548;28;20586;-78
2022/06/11 08:12:04;;;;;;;13.40;2.60;;;17.60;99.90;;;;;;5056252;28;20070;-80
2022/06/11 08:14:30;;;;;;;18.38;3.42;;;17.80;99.00;;;;;;5041342;28;20021;-77
2022/06/11 08:16:56;;;;;;;17.73;2.88;;;18.00;98.20;;;;;;5058246;28;20097;-74
2022/06/11 08:19:21;;;;;;;21.13;3.25;;;18.10;98.20;;;;;;5053684;28;20025;-79
2022/06/11 08:21:47;;;;;;;13.20;2.90;;;18.10;98.70;;;;;;5061410;28;20378;-74
2022/06/11 08:24:13;;;;;;;22.15;3.53;;;18.20;97.90;;;;;;5057552;28;20042;-81
2022/06/11 08:26:38;;;;;;;13.95;3.22;;;18.10;97.80;;;;;;5063645;28;20827;-75
2022/06/11 08:29:04;;;;;;;19.48;3.08;;;17.90;97.70;;;;;;5063498;28;20553;-75
2022/06/11 08:31:30;;;;;;;15.23;2.95;;;17.90;98.60;;;;;;5047621;28;20135;-74
2022/06/11 08:33:55;;;;;;;16.77;3.30;;;18.00;98.20;;;;;;5062546;28;20052;-75
2022/06/11 08:36:21;;;;;;;16.17;3.03;;;18.00;98.10;;;;;;5061219;28;20128;-75
2022/06/11 08:38:47;;;;;;;19.10;3.47;;;18.10;97.10;;;;;;5060305;28;20058;-76
2022/06/11 08:41:24;;;;;;;15.82;3.30;;;18.10;97.60;;;;;;5065110;28;20039;-76
2022/06/11 08:44:10;;;;;;;19.33;3.47;;;18.10;99.40;;;;;;5061109;28;20413;-74
2022/06/11 08:46:40;;;;;;;18.02;3.30;;;18.30;98.00;;;;;;5059592;28;20549;-73
2022/06/11 08:49:06;;;;;;;18.58;3.17;;;18.20;98.20;;;;;;5068017;28;20041;-74
2022/06/11 08:51:54;;;;;;;20.02;3.20;;;18.20;98.20;;;;;;5063703;28;20032;-75
2022/06/11 08:54:29;;;;;;;21.67;3.47;;;18.30;98.80;;;;;;5062487;28;20055;-81
2022/06/11 08:57:00;;;;;;;19.50;3.28;;;18.10;98.80;;;;;;5063691;28;20379;-78
2022/06/11 08:59:29;;;;;;;17.52;3.58;;;18.00;99.90;;;;;;5061676;28;20102;-73
2022/06/11 09:02:09;;;;;;;22.45;3.05;;;18.10;99.90;;;;;;5064348;28;20035;-74
2022/06/11 09:04:38;;;;;;;16.02;3.28;;;18.20;98.60;;;;;;5066526;28;20078;-74
2022/06/11 09:07:34;;;;;;;20.00;3.47;;;18.40;98.00;;;;;;5058259;28;20029;-74
2022/06/11 09:10:14;;;;;;;16.95;3.35;;;18.30;97.90;;;;;;5065403;28;20807;-73
2022/06/11 09:13:17;;;;;;;15.73;3.13;;;18.40;97.80;;;;;;5058117;28;20020;-79
2022/06/11 09:15:58;;;;;;;20.98;3.58;;;18.10;96.50;;;;;;5044570;28;20040;-73
2022/06/11 09:18:48;;;;;;;15.55;3.35;;;17.90;97.50;;;;;;5056622;28;20052;-76
2022/06/11 09:21:28;;;;;;;14.50;2.80;;;17.90;98.90;;;;;;5048369;28;20823;-75
2022/06/11 09:24:05;;;;;;;16.25;2.92;;;17.80;97.20;;;;;;5046985;28;20082;-73
2022/06/11 09:26:45;;;;;;;16.85;3.30;;;17.90;98.70;;;;;;5063352;28;20028;-76
2022/06/11 09:29:13;;;;;;;17.27;3.45;;;18.20;99.20;;;;;;5058284;28;20033;-82
2022/06/11 09:32:05;;;;;;;17.80;3.30;;;18.30;98.20;;;;;;5059845;28;20040;-77
2022/06/11 09:34:36;;;;;;;18.77;3.42;;;18.40;97.10;;;;;;5061071;28;20028;-75
2022/06/11 09:37:16;;;;;;;19.45;3.50;;;18.40;97.60;;;;;;5060967;28;20085;-78
2022/06/11 09:39:44;;;;;;;;;;;18.50;98.80;;;;;;5047908;28;20031;-79
2022/06/11 09:42:27;;;;;;;15.90;3.05;;;18.60;97.90;;;;;;5066018;28;19995;-76
2022/06/11 09:45:44;;;;;;;19.27;3.35;;;18.60;98.10;;;;;;5055351;28;20017;-75
2022/06/11 09:48:25;;;;;;;18.05;3.40;;;18.50;97.40;;;;;;5041011;28;20051;-74
2022/06/11 09:51:23;;;;;;;15.77;3.10;;;18.60;97.80;;;;;;5034884;28;20029;-78
2022/06/11 09:54:30;;;;;;;20.27;4.05;;;18.50;97.50;;;;;;4997175;28;21099;-73
2022/06/11 09:56:58;;;;;;;22.00;3.28;;;18.40;98.10;;;;;;5001609;28;20033;-77
2022/06/11 09:59:35;;;;;;;17.48;3.13;;;18.60;99.40;;;;;;5005680;28;20119;-74
2022/06/11 10:02:07;;;;;;;17.08;3.15;;;18.90;97.20;;;;;;5025468;28;20090;-71
2022/06/11 10:04:41;;;;;;;15.80;3.25;;;18.90;95.40;;;;;;5014564;28;20103;-71
2022/06/11 10:07:40;;;;;;;20.15;3.92;;;18.80;96.70;;;;;;5019676;28;20029;-72
2022/06/11 10:10:31;;;;;;;21.27;3.80;;;18.90;98.10;;;;;;5010696;28;20037;-73
2022/06/11 10:13:14;;;;;;;20.42;3.50;;;19.10;97.90;;;;;;5017212;28;20078;-72
2022/06/11 10:15:42;;;;;;;16.77;3.45;;;19.30;97.50;;;;;;5018366;28;20041;-72
2022/06/11 10:18:23;;;;;;;16.73;3.40;;;19.30;97.30;;;;;;5014557;28;20630;-70
2022/06/11 10:21:04;;;;;;;20.13;3.30;;;19.30;97.50;;;;;;4998920;28;20076;-73
2022/06/11 10:23:53;;;;;;;16.48;3.15;;;19.40;97.00;;;;;;5012827;28;20033;-78
2022/06/11 10:26:28;;;;;;;17.60;3.17;;;19.60;96.90;;;;;;5014544;28;20041;-71
2022/06/11 10:29:22;;;;;;;19.02;3.40;;;19.70;96.30;;;;;;4999215;28;20259;-72
2022/06/11 10:31:58;;;;;;;20.50;3.22;;;19.70;96.40;;;;;;5040423;28;20078;-71
2022/06/11 10:34:26;;;;;;;14.30;2.85;;;19.90;96.80;;;;;;5042029;28;20047;-77
2022/06/11 10:37:18;;;;;;;19.08;3.60;;;20.00;94.50;;;;;;5019293;28;20028;-74
2022/06/11 10:39:54;;;;;;;17.58;3.47;;;20.20;95.30;;;;;;5036327;28;20033;-74
2022/06/11 10:42:36;;;;;;;16.55;3.15;;;20.20;96.50;;;;;;5033455;28;20475;-74
2022/06/11 10:45:03;;;;;;;16.27;3.33;;;20.10;93.50;;;;;;5042986;28;20029;-76
2022/06/11 10:47:36;;;;;;;13.90;3.00;;;20.10;94.10;;;;;;5027208;28;20578;-73
2022/06/11 10:50:11;;;;;;;19.10;3.30;;;20.00;94.60;;;;;;5015646;28;20782;-74
2022/06/11 10:52:39;;;;;;;17.05;3.50;;;20.00;95.20;;;;;;5035800;28;20045;-77
2022/06/11 10:55:10;;;;;;;18.98;3.60;;;20.00;94.90;;;;;;5032850;28;20052;-75
2022/06/11 10:57:37;;;;;;;17.63;2.97;;;20.10;95.80;;;;;;5019272;28;20434;-76
2022/06/11 11:00:19;;;;;;;17.75;3.42;;;20.10;95.20;;;;;;5018765;28;20107;-71
2022/06/11 11:03:13;;;;;;;20.27;3.83;;;20.20;94.40;;;;;;5041270;28;20044;-72
2022/06/11 11:06:08;;;;;;;19.67;3.58;;;20.20;95.40;;;;;;5032669;28;20048;-74
2022/06/11 11:08:47;;;;;;;15.50;3.10;;;20.10;95.60;;;;;;5038553;28;20107;-73
2022/06/11 11:11:15;;;;;;;15.88;3.00;;;20.00;95.50;;;;;;5037091;28;20039;-73
2022/06/11 11:13:43;;;;;;;18.88;3.65;;;20.40;95.10;;;;;;5043530;28;20578;-75
2022/06/11 11:16:11;;;;;;;18.83;3.83;;;20.90;93.30;;;;;;5037839;28;20033;-74
2022/06/11 11:18:53;;;;;;;17.10;3.10;;;21.70;91.60;;;;;;5055850;28;20047;-72
2022/06/11 11:21:33;;;;;;;15.80;3.22;;;22.00;87.10;;;;;;5050036;28;20024;-70
2022/06/11 11:24:12;;;;;;;19.45;3.20;;;22.10;90.60;;;;;;5049633;28;20036;-72
2022/06/11 11:26:54;;;;;;;17.58;3.42;;;20.90;89.80;;;;;;5055089;28;20033;-69
2022/06/11 11:29:28;;;;;;;17.85;3.50;;;21.10;91.10;;;;;;5051484;28;20045;-70
2022/06/11 11:31:58;;;;;;;17.20;3.40;;;21.10;91.60;;;;;;5050041;28;20044;-73
2022/06/11 11:34:30;;;;;;;17.88;3.13;;;20.90;92.60;;;;;;5053212;28;20106;-73
2022/06/11 11:37:17;;;;;;;21.05;3.55;;;20.50;92.40;;;;;;5048729;28;20033;-72
2022/06/11 11:39:52;;;;;;;13.38;3.30;;;20.30;93.70;;;;;;5040794;28;20033;-73
2022/06/11 11:42:26;;;;;;;13.52;2.83;;;20.20;90.90;;;;;;5040008;28;20045;-70
2022/06/11 11:44:57;;;;;;;15.85;3.00;;;20.00;91.30;;;;;;5028193;28;20028;-73
2022/06/11 11:47:40;;;;;;;13.07;3.22;;;19.90;92.80;;;;;;5041206;28;20045;-70
2022/06/11 11:50:22;;;;;;;19.33;3.55;;;19.80;93.50;;;;;;5060281;28;20036;-72
2022/06/11 11:52:53;;;;;;;13.10;2.60;;;19.90;93.40;;;;;;5055153;28;20078;-72
2022/06/11 11:55:27;;;;;;;15.52;3.38;;;20.00;93.90;;;;;;5040341;28;20035;-72
2022/06/11 11:58:02;;;;;;;19.13;3.30;;;20.20;93.40;;;;;;5057440;28;20150;-73
2022/06/11 12:00:39;;;;;;;19.65;3.60;;;20.30;92.80;;;;;;5055455;28;20105;-72
2022/06/11 12:03:14;;;;;;;18.20;3.55;;;20.40;93.60;;;;;;5059613;28;20518;-69
2022/06/11 12:05:50;;;;;;;13.18;2.65;;;20.40;92.60;;;;;;5057171;28;20059;-69
2022/06/11 12:08:25;;;;;;;16.02;3.17;;;20.50;93.50;;;;;;5056167;28;20037;-69
2022/06/11 12:10:55;;;;;;;13.13;2.65;;;20.60;93.90;;;;;;5061569;28;20121;-69
2022/06/11 12:13:47;;;;;;;17.23;3.00;;;20.70;91.90;;;;;;5050647;28;20083;-71
2022/06/11 12:16:25;;;;;;;15.30;2.95;;;20.70;93.10;;;;;;5060302;28;21500;-72
2022/06/11 12:19:11;;;;;;;15.82;3.33;;;20.70;91.80;;;;;;5064424;28;20394;-70
2022/06/11 12:21:42;;;;;;;16.50;2.70;;;20.70;92.80;;;;;;5042357;28;20670;-72
2022/06/11 12:24:24;;;;;;;18.90;3.28;;;20.70;92.90;;;;;;5044137;28;20041;-70
2022/06/11 12:26:56;;;;;;;16.73;3.08;;;20.70;93.30;;;;;;5056865;28;20032;-70
2022/06/11 12:29:35;;;;;;;17.02;3.67;;;20.70;93.70;;;;;;5054077;28;20033;-70
2022/06/11 12:32:21;;;;;;;16.75;3.30;;;20.70;92.30;;;;;;5055254;28;20032;-75
2022/06/11 12:34:47;;;;;;;16.08;2.92;;;20.40;93.60;;;;;;5040306;28;20051;-72
2022/06/11 12:37:16;;;;;;;18.00;3.15;;;20.40;94.30;;;;;;5044201;28;20094;-69
2022/06/11 12:40:11;;;;;;;17.42;3.00;;;20.40;94.30;;;;;;5058200;28;20028;-72
2022/06/11 12:42:43;;;;;;;16.30;3.30;;;20.50;94.10;;;;;;5062868;28;20127;-73
2022/06/11 12:45:38;;;;;;;17.35;3.28;;;20.60;93.90;;;;;;5055636;28;20024;-70
2022/06/11 12:48:19;;;;;;;16.90;3.40;;;20.70;94.90;;;;;;5058187;28;20729;-69
2022/06/11 12:51:01;;;;;;;21.17;3.45;;;20.50;94.60;;;;;;5059430;28;20024;-70
2022/06/11 12:53:40;;;;;;;19.88;3.40;;;20.40;94.00;;;;;;5058149;28;20052;-73
2022/06/11 12:56:30;;;;;;;14.75;3.20;;;20.20;93.20;;;;;;5063950;28;20191;-73
2022/06/11 12:59:17;;;;;;;15.85;3.38;;;20.00;93.30;;;;;;5066478;28;20041;-72
2022/06/11 13:02:16;;;;;;;18.65;3.08;;;20.00;94.50;;;;;;5058694;28;20025;-73
2022/06/11 13:04:47;;;;;;;15.43;2.75;;;20.10;94.40;;;;;;5059013;28;20385;-73
2022/06/11 13:07:48;;;;;;;20.23;3.42;;;20.20;93.60;;;;;;5056622;28;20071;-72
2022/06/11 13:10:26;;;;;;;14.98;3.00;;;20.20;93.40;;;;;;5060456;28;20029;-71
2022/06/11 13:13:07;;;;;;;18.48;2.70;;;20.30;93.80;;;;;;5055583;28;20024;-69